Time;durP1;ratioP1;P1;durP2;ratioP2;P2;SDS_P1;SDS_P2;PMS_P1;PMS_P2;Temp;Humidity;BMP_temperature;BMP_pressure;BME280_temperature;BME280_humidity;BME280_pressure;Samples;Min_cycle;Max_cycle;Signal;HPM_P1;HPM_P2
2022/01/24 00:02:13;;;;;;;32.08;24.10;;;11.60;74.90;;;;;;5033312;28;20490;-72
2022/01/24 00:04:39;;;;;;;30.95;24.92;;;11.50;74.70;;;;;;5032171;28;20474;-75
2022/01/24 00:07:05;;;;;;;31.00;25.27;;;11.50;74.70;;;;;;5033398;28;20029;-67
2022/01/24 00:09:31;;;;;;;28.95;22.98;;;11.60;74.60;;;;;;5033495;28;20033;-75
2022/01/24 00:12:12;;;;;;;30.95;24.08;;;11.60;74.40;;;;;;5033366;28;20060;-74
2022/01/24 00:15:00;;;;;;;30.48;23.77;;;11.60;74.30;;;;;;5033197;28;20095;-66
2022/01/24 00:28:19;;;;;;;25.08;20.85;;;11.60;74.20;;;;;;5033110;28;20068;-70
2022/01/24 00:30:45;;;;;;;28.52;22.65;;;11.50;73.70;;;;;;5033038;28;20391;-75
2022/01/24 00:33:11;;;;;;;28.77;23.15;;;11.50;73.80;;;;;;5033162;28;20018;-71
2022/01/24 00:35:36;;;;;;;28.60;21.42;;;11.50;74.30;;;;;;5033380;28;20033;-68
2022/01/24 00:38:02;;;;;;;25.73;20.60;;;11.50;74.50;;;;;;5033032;28;20025;-75
2022/01/24 00:40:35;;;;;;;29.52;21.85;;;11.50;74.10;;;;;;5033040;28;20032;-74
2022/01/24 00:43:01;;;;;;;29.38;22.70;;;11.40;74.00;;;;;;5033168;28;20075;-74
2022/01/24 00:55:52;;;;;;;28.27;21.85;;;11.40;74.50;;;;;;5033348;28;20076;-73
2022/01/24 00:58:17;;;;;;;26.00;21.73;;;11.40;74.90;;;;;;5032536;28;20095;-74
2022/01/24 01:00:43;;;;;;;29.08;21.80;;;11.40;75.40;;;;;;5032987;28;20030;-74
2022/01/24 01:03:08;;;;;;;26.50;21.52;;;11.40;75.10;;;;;;5032682;28;20017;-74
2022/01/24 01:19:19;;;;;;;28.38;21.17;;;11.40;73.80;;;;;;5032861;28;20045;-74
2022/01/24 01:21:45;;;;;;;26.17;20.38;;;11.40;73.90;;;;;;5031398;28;20025;-75
2022/01/24 01:24:10;;;;;;;28.08;21.83;;;11.30;74.00;;;;;;5032567;28;20030;-68
2022/01/24 01:26:49;;;;;;;25.80;19.83;;;11.30;74.50;;;;;;5032363;28;20450;-76
2022/01/24 01:29:20;;;;;;;24.23;19.48;;;11.30;74.00;;;;;;5032305;28;20061;-74
2022/01/24 01:31:57;;;;;;;23.88;19.02;;;11.30;73.50;;;;;;5032805;28;20093;-74
2022/01/24 01:56:09;;;;;;;21.15;17.45;;;11.20;73.00;;;;;;5004823;28;20375;-75
2022/01/24 01:58:35;;;;;;;19.05;16.38;;;11.20;73.40;;;;;;5018028;28;20022;-74
2022/01/24 02:01:03;;;;;;;20.27;16.98;;;11.20;73.20;;;;;;5036016;28;20442;-76
2022/01/24 02:03:30;;;;;;;19.80;16.00;;;11.10;72.90;;;;;;5035643;28;20040;-76
2022/01/24 02:05:56;;;;;;;16.52;14.45;;;11.10;73.00;;;;;;5035982;28;20025;-75
2022/01/24 02:08:22;;;;;;;16.98;14.48;;;11.10;72.10;;;;;;5035352;28;20057;-75
2022/01/24 02:10:48;;;;;;;17.63;15.68;;;11.10;72.00;;;;;;5035581;28;20033;-76
2022/01/24 02:13:14;;;;;;;17.88;15.45;;;11.10;71.90;;;;;;5035725;28;20076;-76
2022/01/24 02:15:55;;;;;;;19.33;15.68;;;11.10;72.10;;;;;;5035557;28;20025;-77
2022/01/24 02:18:41;;;;;;;18.60;15.32;;;11.00;72.50;;;;;;5035200;28;20030;-73
2022/01/24 02:21:11;;;;;;;18.02;15.63;;;11.10;73.10;;;;;;5035590;28;20108;-75
2022/01/24 02:23:43;;;;;;;20.15;16.67;;;11.10;72.80;;;;;;5035412;28;20083;-77
2022/01/24 02:26:15;;;;;;;18.50;15.43;;;11.10;72.80;;;;;;5035225;28;20029;-76
2022/01/24 02:31:48;;;;;;;18.98;16.02;;;11.00;72.70;;;;;;5035489;28;20033;-76
2022/01/24 02:34:24;;;;;;;21.50;16.63;;;11.00;73.00;;;;;;5031156;28;20088;-72
2022/01/24 02:36:50;;;;;;;17.90;14.63;;;11.00;72.70;;;;;;5035342;28;20025;-73
2022/01/24 02:50:19;;;;;;;20.15;15.35;;;11.00;73.30;;;;;;5034121;28;20102;-67
2022/01/24 02:52:45;;;;;;;22.98;16.92;;;11.00;73.10;;;;;;5034958;28;20037;-72
2022/01/24 02:55:10;;;;;;;20.20;17.20;;;10.90;73.70;;;;;;5034388;28;20033;-68
2022/01/24 02:57:36;;;;;;;18.08;15.88;;;10.90;73.70;;;;;;5034730;28;20471;-74
2022/01/24 03:00:02;;;;;;;19.23;15.93;;;10.90;73.30;;;;;;5034537;28;20410;-72
2022/01/24 03:02:28;;;;;;;21.88;16.85;;;10.90;73.20;;;;;;5034534;28;20116;-72
2022/01/24 03:04:54;;;;;;;22.40;17.35;;;10.90;73.10;;;;;;5034637;28;20120;-67
2022/01/24 03:07:20;;;;;;;22.25;17.48;;;10.80;72.90;;;;;;5034633;28;20017;-74
2022/01/24 03:09:46;;;;;;;21.33;16.45;;;10.80;72.90;;;;;;5034139;28;20442;-69
2022/01/24 03:12:14;;;;;;;20.10;16.33;;;10.90;73.10;;;;;;5034605;28;20025;-73
2022/01/24 03:14:39;;;;;;;19.38;16.05;;;10.90;73.20;;;;;;5034161;28;20421;-76
2022/01/24 03:17:06;;;;;;;21.38;17.10;;;10.80;73.10;;;;;;5034586;28;20049;-74
2022/01/24 03:19:32;;;;;;;19.05;16.67;;;10.80;73.10;;;;;;5034243;28;20025;-76
2022/01/24 03:21:58;;;;;;;21.20;17.05;;;10.80;72.80;;;;;;5034297;28;20029;-76
2022/01/24 03:24:24;;;;;;;20.08;16.50;;;10.70;72.70;;;;;;5034079;28;20064;-72
2022/01/24 03:26:49;;;;;;;19.45;16.00;;;10.70;72.40;;;;;;5033935;28;20036;-76
2022/01/24 03:29:15;;;;;;;18.15;14.82;;;10.70;71.90;;;;;;5034073;28;20108;-72
2022/01/24 03:31:43;;;;;;;18.65;14.82;;;10.60;71.60;;;;;;5033929;28;20119;-71
2022/01/24 03:34:09;;;;;;;20.23;16.42;;;10.70;72.30;;;;;;5034171;28;20036;-68
2022/01/24 03:36:34;;;;;;;18.95;16.60;;;10.70;72.50;;;;;;5033999;28;20025;-68
2022/01/24 03:39:00;;;;;;;17.83;15.13;;;10.70;72.00;;;;;;5033508;28;20029;-76
2022/01/24 03:41:26;;;;;;;18.13;15.30;;;10.70;71.90;;;;;;5033848;28;20474;-67
2022/01/24 03:43:52;;;;;;;19.17;16.50;;;10.60;72.10;;;;;;5033963;28;20463;-66
2022/01/24 03:48:48;;;;;;;20.70;17.67;;;10.60;72.60;;;;;;5033652;28;20046;-73
2022/01/24 03:51:15;;;;;;;21.88;17.48;;;10.60;72.70;;;;;;5033821;28;20029;-75
2022/01/24 03:53:43;;;;;;;21.88;17.55;;;10.60;73.00;;;;;;5033332;28;20022;-68
2022/01/24 03:56:08;;;;;;;20.25;17.50;;;10.60;73.00;;;;;;5033486;28;20108;-73
2022/01/24 03:58:34;;;;;;;20.15;17.40;;;10.60;73.20;;;;;;5033467;28;20096;-68
2022/01/24 04:01:04;;;;;;;21.42;18.45;;;10.60;73.80;;;;;;5032657;28;20037;-75
2022/01/24 04:03:30;;;;;;;21.90;18.15;;;10.60;73.30;;;;;;5033445;28;20463;-76
2022/01/24 04:05:55;;;;;;;21.98;18.33;;;10.60;73.20;;;;;;5033571;28;20059;-77
2022/01/24 04:08:21;;;;;;;22.40;18.17;;;10.60;73.00;;;;;;5033136;28;20048;-76
2022/01/24 04:10:51;;;;;;;22.85;19.02;;;10.50;73.30;;;;;;5033430;28;20078;-69
2022/01/24 04:16:30;;;;;;;23.67;18.88;;;10.60;73.90;;;;;;5015836;28;20128;-68
2022/01/24 04:21:34;;;;;;;26.47;19.63;;;10.50;73.80;;;;;;5033232;28;20232;-74
2022/01/24 04:24:07;;;;;;;24.83;20.83;;;10.50;74.20;;;;;;5033277;28;20478;-67
2022/01/24 04:26:34;;;;;;;25.83;19.70;;;10.50;74.90;;;;;;5033066;28;20053;-68
2022/01/24 04:29:00;;;;;;;24.23;19.50;;;10.40;74.60;;;;;;5033111;28;20025;-67
2022/01/24 04:31:27;;;;;;;23.92;19.83;;;10.50;74.40;;;;;;5015457;28;20395;-69
2022/01/24 04:33:53;;;;;;;25.25;19.77;;;10.50;74.50;;;;;;5033081;28;20021;-77
2022/01/24 04:36:20;;;;;;;24.55;19.63;;;10.40;74.70;;;;;;5032870;28;20025;-77
2022/01/24 04:38:46;;;;;;;26.20;20.67;;;10.50;74.80;;;;;;5032982;28;20028;-74
2022/01/24 04:41:24;;;;;;;25.00;20.17;;;10.50;74.90;;;;;;5033143;28;20025;-77
2022/01/24 04:43:59;;;;;;;23.98;19.42;;;10.40;75.10;;;;;;5033038;28;20029;-75
2022/01/24 04:52:09;;;;;;;25.08;19.95;;;10.40;74.50;;;;;;5032559;28;20454;-75
2022/01/24 04:54:45;;;;;;;25.40;20.08;;;10.40;74.80;;;;;;5032829;28;20036;-73
2022/01/24 04:57:22;;;;;;;24.73;20.70;;;10.40;74.40;;;;;;5032931;28;20026;-77
2022/01/24 04:59:50;;;;;;;22.15;18.52;;;10.40;74.40;;;;;;5032632;28;20483;-77
2022/01/24 05:02:17;;;;;;;22.30;18.55;;;10.30;73.90;;;;;;5032912;28;20438;-67
2022/01/24 05:04:43;;;;;;;23.65;19.60;;;10.30;74.10;;;;;;5032633;28;20093;-67
2022/01/24 05:07:09;;;;;;;23.85;20.05;;;10.30;74.30;;;;;;5032716;28;20467;-68
2022/01/24 05:09:40;;;;;;;22.15;18.60;;;10.30;74.60;;;;;;5032933;28;20037;-68
2022/01/24 05:25:38;;;;;;;21.50;18.45;;;10.20;74.60;;;;;;5036953;28;20047;-74
2022/01/24 05:28:04;;;;;;;24.27;19.27;;;10.20;75.60;;;;;;5036079;28;20518;-68
2022/01/24 05:30:29;;;;;;;21.75;18.58;;;10.10;75.20;;;;;;5036545;28;20125;-69
2022/01/24 05:32:55;;;;;;;24.10;19.00;;;10.20;74.60;;;;;;5036267;28;20089;-67
2022/01/24 05:35:20;;;;;;;23.70;19.45;;;10.10;74.80;;;;;;5036201;28;20492;-75
2022/01/24 05:37:46;;;;;;;23.88;19.27;;;10.20;75.10;;;;;;5036032;28;20390;-70
2022/01/24 05:40:12;;;;;;;23.77;19.05;;;10.20;75.00;;;;;;5036180;28;20021;-77
2022/01/24 05:42:37;;;;;;;21.65;17.88;;;10.10;75.30;;;;;;5036045;28;20490;-76
2022/01/24 05:45:05;;;;;;;21.88;18.73;;;10.10;75.00;;;;;;5035985;28;20360;-68
2022/01/24 05:47:31;;;;;;;22.25;18.50;;;10.10;75.30;;;;;;5036111;28;20030;-76
2022/01/24 05:49:56;;;;;;;22.85;18.63;;;10.10;75.20;;;;;;5035489;28;20549;-74
2022/01/24 05:52:22;;;;;;;22.67;18.45;;;10.10;75.20;;;;;;5036128;28;20033;-67
2022/01/24 05:54:47;;;;;;;22.38;18.77;;;10.10;76.00;;;;;;5035653;28;20116;-67
2022/01/24 05:57:13;;;;;;;26.38;22.15;;;10.00;76.90;;;;;;5036012;28;20096;-67
2022/01/24 05:59:38;;;;;;;32.20;21.63;;;10.10;76.60;;;;;;5018105;28;20036;-71
2022/01/24 06:02:05;;;;;;;22.65;18.98;;;10.00;76.80;;;;;;5033778;28;20029;-69
2022/01/24 06:04:31;;;;;;;24.75;20.38;;;10.00;77.30;;;;;;5035155;28;20030;-72
2022/01/24 06:06:57;;;;;;;23.65;19.63;;;10.00;76.50;;;;;;5034920;28;20028;-70
2022/01/24 06:09:22;;;;;;;24.20;19.50;;;10.10;76.90;;;;;;5035463;28;20041;-76
2022/01/24 06:11:48;;;;;;;25.50;18.77;;;10.00;76.60;;;;;;5035614;28;20148;-68
2022/01/24 06:14:14;;;;;;;24.20;19.50;;;10.00;75.60;;;;;;5035462;28;20041;-71
2022/01/24 06:16:40;;;;;;;28.67;20.63;;;10.00;75.50;;;;;;5017721;28;20443;-73
2022/01/24 06:19:06;;;;;;;22.50;19.23;;;10.00;75.10;;;;;;5034743;28;20108;-69
2022/01/24 06:21:32;;;;;;;22.80;19.33;;;10.00;75.50;;;;;;5035434;28;20075;-76
2022/01/24 06:23:57;;;;;;;22.13;18.55;;;10.00;75.20;;;;;;5025594;28;20041;-74
2022/01/24 06:26:23;;;;;;;28.17;19.95;;;9.90;75.10;;;;;;5020833;28;20044;-74
2022/01/24 06:28:49;;;;;;;23.42;18.52;;;9.90;74.90;;;;;;5020296;28;20540;-68
2022/01/24 06:31:14;;;;;;;25.42;18.77;;;9.90;75.10;;;;;;5024412;28;20059;-68
2022/01/24 06:33:40;;;;;;;26.00;20.17;;;9.90;75.10;;;;;;5028385;28;20379;-67
2022/01/24 06:36:06;;;;;;;23.52;19.90;;;9.90;75.40;;;;;;5028384;28;20462;-68
2022/01/24 06:38:32;;;;;;;22.75;19.30;;;9.90;75.50;;;;;;5026722;28;20048;-69
2022/01/24 06:40:57;;;;;;;24.13;19.20;;;9.90;75.60;;;;;;5033582;28;20411;-68
2022/01/24 06:43:23;;;;;;;25.40;20.35;;;9.90;75.50;;;;;;5033482;28;20040;-70
2022/01/24 06:45:49;;;;;;;25.85;19.88;;;9.90;75.40;;;;;;5034380;28;20024;-68
2022/01/24 06:48:14;;;;;;;25.70;20.05;;;9.90;75.50;;;;;;5032679;28;20030;-66
2022/01/24 06:50:40;;;;;;;27.02;20.17;;;9.90;75.30;;;;;;5033783;28;20068;-65
2022/01/24 06:53:05;;;;;;;24.92;20.80;;;9.90;75.40;;;;;;5033542;28;20025;-67
2022/01/24 06:55:31;;;;;;;26.83;21.05;;;9.90;75.30;;;;;;5034051;28;20466;-69
2022/01/24 06:57:57;;;;;;;27.52;21.80;;;9.90;75.50;;;;;;5024211;28;20281;-67
2022/01/24 07:00:26;;;;;;;27.48;20.27;;;9.80;75.50;;;;;;5024720;28;20360;-66
2022/01/24 07:02:55;;;;;;;25.35;20.15;;;9.70;76.30;;;;;;5031354;28;20080;-68
2022/01/24 07:05:21;;;;;;;28.17;20.70;;;9.80;76.10;;;;;;5027861;28;20063;-67
2022/01/24 07:07:47;;;;;;;26.20;21.05;;;9.80;75.70;;;;;;5031197;28;20105;-66
2022/01/24 07:10:13;;;;;;;25.10;20.10;;;9.80;75.80;;;;;;5039721;28;20499;-67
2022/01/24 07:12:38;;;;;;;26.17;20.67;;;9.80;75.70;;;;;;5027878;28;20029;-67
2022/01/24 07:15:09;;;;;;;26.95;20.95;;;9.80;75.90;;;;;;5033655;28;20037;-67
2022/01/24 07:20:20;;;;;;;25.50;20.10;;;9.70;75.90;;;;;;5033478;28;20072;-70
2022/01/24 07:22:46;;;;;;;28.90;20.88;;;9.80;76.00;;;;;;5034207;28;20041;-71
2022/01/24 07:25:11;;;;;;;27.05;20.60;;;9.70;75.90;;;;;;5033993;28;20030;-72
2022/01/24 07:27:37;;;;;;;22.08;17.90;;;9.80;76.00;;;;;;5034327;28;20071;-67
2022/01/24 07:30:04;;;;;;;27.42;20.25;;;9.80;76.50;;;;;;5033154;28;20486;-69
2022/01/24 07:32:30;;;;;;;23.67;19.30;;;9.80;76.10;;;;;;5033477;28;20036;-65
2022/01/24 07:34:57;;;;;;;27.55;19.30;;;9.80;76.00;;;;;;5033437;28;20096;-69
2022/01/24 07:37:24;;;;;;;23.85;18.85;;;9.80;76.30;;;;;;5034147;28;20040;-71
2022/01/24 07:39:51;;;;;;;24.20;19.33;;;9.80;76.40;;;;;;5034090;28;20482;-70
2022/01/24 07:42:27;;;;;;;25.60;18.83;;;9.80;76.20;;;;;;5033982;28;20024;-67
2022/01/24 07:44:53;;;;;;;28.65;19.38;;;9.80;76.60;;;;;;5033032;28;20419;-68
2022/01/24 07:47:18;;;;;;;31.35;21.25;;;9.90;76.50;;;;;;5033187;28;20056;-70
2022/01/24 07:49:44;;;;;;;26.90;19.48;;;9.90;76.00;;;;;;5033753;28;20471;-67
2022/01/24 07:52:09;;;;;;;25.90;19.73;;;9.90;76.20;;;;;;5032697;28;20029;-71
2022/01/24 07:54:35;;;;;;;25.45;19.80;;;9.90;76.40;;;;;;5032916;28;20044;-69
2022/01/24 07:57:01;;;;;;;26.83;19.92;;;9.90;76.70;;;;;;5033458;28;20017;-71
2022/01/24 07:59:27;;;;;;;33.47;19.60;;;9.90;76.60;;;;;;5033287;28;20479;-71
2022/01/24 08:01:52;;;;;;;25.25;18.67;;;9.80;76.60;;;;;;5033429;28;20022;-71
2022/01/24 08:04:18;;;;;;;25.92;19.40;;;9.80;76.70;;;;;;5033121;28;20537;-69
2022/01/24 08:06:43;;;;;;;27.00;19.85;;;9.80;76.60;;;;;;5032884;28;20037;-71
2022/01/24 08:09:09;;;;;;;23.73;18.73;;;9.80;76.90;;;;;;5033364;28;20156;-69
2022/01/24 08:11:36;;;;;;;23.63;18.73;;;9.70;77.80;;;;;;5033191;28;20022;-67
2022/01/24 08:14:02;;;;;;;23.35;18.58;;;9.80;77.10;;;;;;5032799;28;20025;-69
2022/01/24 08:16:28;;;;;;;25.52;19.83;;;9.80;77.20;;;;;;5032909;28;20032;-67
2022/01/24 08:18:56;;;;;;;27.25;21.20;;;9.80;77.40;;;;;;5033020;28;20029;-69
2022/01/24 08:21:22;;;;;;;25.67;19.92;;;9.80;77.00;;;;;;5032986;28;20025;-70
2022/01/24 08:23:48;;;;;;;26.63;19.90;;;9.80;77.00;;;;;;5033192;28;20176;-66
2022/01/24 08:26:14;;;;;;;27.02;20.52;;;9.70;77.70;;;;;;5033131;28;20025;-67
2022/01/24 08:28:40;;;;;;;28.27;20.95;;;9.80;77.20;;;;;;5032735;28;20029;-66
2022/01/24 08:31:05;;;;;;;28.55;20.88;;;9.80;77.70;;;;;;5033100;28;20072;-66
2022/01/24 08:33:31;;;;;;;26.50;20.65;;;9.80;76.90;;;;;;5030698;28;20053;-69
2022/01/24 08:35:57;;;;;;;27.77;21.13;;;9.90;76.40;;;;;;5032554;28;20483;-65
2022/01/24 08:38:23;;;;;;;27.02;20.10;;;9.90;76.30;;;;;;5032261;28;20075;-69
2022/01/24 08:40:55;;;;;;;29.40;21.05;;;9.90;76.10;;;;;;5032697;28;20029;-69
2022/01/24 08:43:37;;;;;;;28.25;20.65;;;9.90;75.90;;;;;;5032321;28;20402;-66
2022/01/24 08:46:03;;;;;;;;;;;9.90;76.50;;;;;;5033739;28;20050;-69
2022/01/24 08:48:31;;;;;;;29.60;19.83;;;9.60;77.80;;;;;;5020955;28;19905;-66
2022/01/24 08:50:59;;;;;;;27.65;18.88;;;9.60;78.40;;;;;;5039239;28;20029;-70
2022/01/24 08:53:30;;;;;;;29.25;20.52;;;9.50;78.80;;;;;;5038837;28;20033;-70
2022/01/24 08:55:58;;;;;;;26.88;20.27;;;9.50;78.80;;;;;;5038616;28;20034;-68
2022/01/24 08:58:24;;;;;;;28.70;19.17;;;9.50;79.70;;;;;;5036657;28;20026;-68
2022/01/24 09:00:50;;;;;;;33.50;20.25;;;9.50;79.00;;;;;;5037111;28;20017;-69
2022/01/24 09:03:16;;;;;;;27.60;19.73;;;9.60;79.20;;;;;;5026517;28;20112;-70
2022/01/24 09:05:42;;;;;;;27.65;19.42;;;9.60;79.30;;;;;;5035492;28;20025;-67
2022/01/24 09:08:09;;;;;;;31.67;19.50;;;9.70;78.80;;;;;;5039206;28;20024;-66
2022/01/24 09:10:38;;;;;;;28.10;20.17;;;9.70;78.90;;;;;;5039215;28;20033;-66
2022/01/24 09:13:03;;;;;;;28.92;19.50;;;9.90;77.80;;;;;;5038676;28;20472;-67
2022/01/24 09:15:29;;;;;;;29.08;19.77;;;10.00;77.20;;;;;;5034079;28;20061;-66
2022/01/24 09:17:54;;;;;;;30.90;20.58;;;9.90;77.00;;;;;;5034952;28;20079;-68
2022/01/24 09:20:20;;;;;;;27.33;20.05;;;10.00;76.90;;;;;;5038064;28;20028;-66
2022/01/24 09:22:47;;;;;;;32.88;19.90;;;9.90;76.60;;;;;;5039254;28;20439;-64
2022/01/24 09:25:15;;;;;;;28.33;20.55;;;10.00;77.00;;;;;;5039222;28;20033;-65
2022/01/24 09:27:42;;;;;;;28.20;20.38;;;10.00;76.80;;;;;;5038718;28;20032;-66
2022/01/24 09:30:09;;;;;;;26.95;20.13;;;9.90;77.00;;;;;;5038993;28;20124;-65
2022/01/24 09:32:35;;;;;;;24.85;18.35;;;9.70;79.20;;;;;;5038926;28;20434;-68
2022/01/24 09:35:07;;;;;;;26.85;19.33;;;9.70;79.70;;;;;;5038336;28;20029;-65
2022/01/24 09:37:34;;;;;;;25.00;16.63;;;9.70;79.10;;;;;;5038214;28;20018;-69
2022/01/24 09:39:59;;;;;;;21.13;16.23;;;9.80;81.00;;;;;;5033558;28;20041;-66
2022/01/24 09:42:26;;;;;;;23.80;17.08;;;9.90;80.90;;;;;;5038877;28;20029;-70
2022/01/24 09:44:52;;;;;;;22.65;17.38;;;10.10;81.40;;;;;;5037588;28;20421;-66
2022/01/24 09:47:18;;;;;;;24.00;18.08;;;10.00;80.00;;;;;;5039154;28;20036;-66
2022/01/24 09:49:46;;;;;;;20.65;15.25;;;10.00;78.70;;;;;;5037900;28;20066;-70
2022/01/24 09:52:12;;;;;;;24.08;16.45;;;10.00;80.60;;;;;;5038167;28;20022;-67
2022/01/24 09:54:38;;;;;;;21.05;18.02;;;10.10;80.20;;;;;;5037864;28;20037;-66
2022/01/24 09:57:03;;;;;;;23.42;16.00;;;10.10;80.00;;;;;;5038981;28;20044;-66
2022/01/24 09:59:30;;;;;;;24.20;17.42;;;10.10;80.00;;;;;;5036207;28;20025;-66
2022/01/24 10:01:55;;;;;;;26.10;18.65;;;10.10;80.20;;;;;;5035769;28;20020;-66
2022/01/24 10:04:25;;;;;;;25.75;18.63;;;10.20;79.90;;;;;;5035233;28;20025;-65
2022/01/24 10:07:05;;;;;;;22.80;16.58;;;10.20;80.10;;;;;;5017356;28;20071;-66
2022/01/24 10:09:51;;;;;;;22.27;16.33;;;10.30;80.60;;;;;;5034950;28;20113;-66
2022/01/24 10:16:24;;;;;;;23.52;18.45;;;10.30;79.70;;;;;;5035784;28;20386;-65
2022/01/24 10:18:11;;;;;;;21.95;16.83;;;10.40;81.70;;;;;;5034927;28;20036;-65
2022/01/24 10:20:39;;;;;;;23.48;18.25;;;10.40;79.80;;;;;;5034032;28;20017;-65
2022/01/24 10:23:16;;;;;;;23.52;18.38;;;10.40;79.00;;;;;;5034201;28;20029;-66
2022/01/24 10:26:00;;;;;;;25.55;19.15;;;10.40;78.80;;;;;;5034991;28;20429;-67
2022/01/24 10:28:45;;;;;;;23.10;17.85;;;10.40;78.50;;;;;;5035397;28;20021;-67
2022/01/24 10:31:18;;;;;;;26.05;20.13;;;10.40;78.20;;;;;;5034619;28;20037;-66
2022/01/24 10:34:40;;;;;;;25.23;19.90;;;10.50;76.50;;;;;;5034825;28;20108;-69
2022/01/24 10:36:51;;;;;;;23.38;18.65;;;10.50;76.10;;;;;;5014917;28;20045;-65
2022/01/24 10:42:24;;;;;;;23.92;19.92;;;10.50;77.30;;;;;;5035155;28;20036;-65
2022/01/24 10:44:50;;;;;;;26.25;19.67;;;10.40;76.80;;;;;;5034914;28;20037;-66
2022/01/24 10:47:31;;;;;;;27.70;21.27;;;10.30;77.00;;;;;;5033720;28;20045;-67
2022/01/24 10:50:03;;;;;;;25.35;20.55;;;10.40;77.50;;;;;;5034340;28;20038;-70
2022/01/24 10:52:31;;;;;;;26.42;22.08;;;10.40;77.40;;;;;;5034808;28;20100;-65
2022/01/24 10:55:14;;;;;;;26.30;20.63;;;10.50;76.60;;;;;;5033654;28;20514;-70
2022/01/24 10:57:40;;;;;;;24.40;19.48;;;10.50;76.50;;;;;;5034248;28;20024;-66
2022/01/24 11:00:09;;;;;;;26.63;20.25;;;10.50;76.70;;;;;;5021507;28;20486;-65
2022/01/24 11:02:36;;;;;;;27.00;21.30;;;10.50;77.20;;;;;;5032179;28;20359;-66
2022/01/24 11:05:18;;;;;;;24.80;19.48;;;10.50;76.90;;;;;;5034535;28;20503;-65
2022/01/24 11:08:05;;;;;;;26.85;20.20;;;10.60;77.90;;;;;;5034469;28;20029;-66
2022/01/24 11:10:34;;;;;;;25.45;20.23;;;10.70;77.20;;;;;;5031923;28;20072;-67
2022/01/24 11:13:03;;;;;;;25.77;20.33;;;10.70;76.30;;;;;;5033689;28;20179;-69
2022/01/24 11:15:29;;;;;;;25.40;19.40;;;10.60;75.80;;;;;;5020761;28;20120;-68
2022/01/24 11:17:55;;;;;;;32.10;20.45;;;10.60;75.30;;;;;;5031732;28;20484;-70
2022/01/24 11:20:29;;;;;;;24.13;18.48;;;10.70;71.20;;;;;;5014482;28;20022;-60
2022/01/24 11:22:58;;;;;;;25.02;18.23;;;11.10;75.90;;;;;;5029281;28;20036;-61
2022/01/24 11:25:24;;;;;;;18.83;15.43;;;10.80;77.10;;;;;;5033016;28;20042;-61
2022/01/24 11:27:50;;;;;;;24.25;17.73;;;10.80;78.20;;;;;;5019455;28;20034;-55
2022/01/24 11:30:42;;;;;;;24.30;16.23;;;10.80;77.30;;;;;;5013299;28;20516;-62
2022/01/24 11:33:13;;;;;;;26.60;17.88;;;10.80;77.60;;;;;;5004969;28;20046;-62
2022/01/24 11:35:50;;;;;;;22.75;16.48;;;10.80;77.60;;;;;;5030578;28;20025;-60
2022/01/24 11:38:36;;;;;;;20.67;16.30;;;10.80;77.20;;;;;;5030903;28;20026;-57
2022/01/24 11:41:07;;;;;;;19.08;14.05;;;10.80;77.30;;;;;;5021799;28;20124;-60
2022/01/24 11:44:05;;;;;;;25.05;19.45;;;10.80;77.70;;;;;;5030915;28;20370;-61
2022/01/24 11:46:48;;;;;;;24.52;18.42;;;10.80;77.50;;;;;;5017402;28;20452;-62
2022/01/24 11:49:32;;;;;;;20.45;17.08;;;10.80;77.10;;;;;;5013567;28;20057;-63
2022/01/24 11:52:10;;;;;;;25.63;20.23;;;10.70;77.30;;;;;;5021829;28;20522;-53
2022/01/24 11:54:43;;;;;;;27.98;20.50;;;10.80;75.30;;;;;;5019385;28;20042;-59
2022/01/24 11:57:37;;;;;;;27.30;22.08;;;10.50;76.20;;;;;;5026109;28;20451;-59
2022/01/24 12:00:05;;;;;;;21.80;17.30;;;10.50;77.00;;;;;;5026216;28;20039;-54
2022/01/24 12:03:11;;;;;;;23.60;18.98;;;10.40;77.70;;;;;;5012281;28;20483;-56
2022/01/24 12:05:41;;;;;;;27.73;19.83;;;10.40;77.70;;;;;;4998199;28;20116;-59
2022/01/24 12:08:10;;;;;;;26.52;20.90;;;10.40;77.50;;;;;;5029480;28;20025;-59
2022/01/24 12:10:39;;;;;;;24.05;19.67;;;10.30;77.50;;;;;;5026646;28;20498;-59
2022/01/24 12:13:18;;;;;;;20.33;15.32;;;10.30;78.40;;;;;;5027153;28;20533;-56
2022/01/24 12:15:44;;;;;;;22.45;17.35;;;10.50;80.40;;;;;;5021846;28;20569;-59
2022/01/24 12:18:18;;;;;;;22.73;17.67;;;10.50;78.50;;;;;;5028864;28;20018;-61
2022/01/24 12:20:44;;;;;;;24.35;18.05;;;10.60;78.60;;;;;;5013112;28;20099;-56
2022/01/24 12:23:25;;;;;;;26.00;18.98;;;10.60;78.50;;;;;;5019846;28;20018;-55
2022/01/24 12:26:12;;;;;;;21.58;17.45;;;10.60;78.20;;;;;;5026420;28;20030;-56
2022/01/24 12:28:44;;;;;;;24.70;18.38;;;10.70;79.20;;;;;;5029654;28;20034;-56
2022/01/24 12:31:21;;;;;;;29.65;23.10;;;10.80;78.60;;;;;;5020138;28;20030;-59
2022/01/24 12:33:53;;;;;;;27.50;21.05;;;10.80;77.90;;;;;;5011755;28;20037;-63
2022/01/24 12:36:47;;;;;;;28.63;20.35;;;10.70;77.80;;;;;;5021339;28;20120;-59
2022/01/24 12:39:16;;;;;;;26.27;18.48;;;10.60;78.40;;;;;;5024583;28;20028;-60
2022/01/24 12:41:48;;;;;;;27.88;20.70;;;10.60;79.20;;;;;;5026336;28;20026;-62
2022/01/24 12:47:04;;;;;;;31.83;24.13;;;10.70;77.40;;;;;;5014730;28;20033;-59
2022/01/24 12:49:31;;;;;;;26.02;18.63;;;10.70;77.10;;;;;;5027092;28;20479;-64
2022/01/24 12:52:03;;;;;;;31.15;21.88;;;10.70;78.90;;;;;;5020173;28;20054;-57
2022/01/24 12:54:31;;;;;;;23.02;17.63;;;10.80;78.10;;;;;;5030858;28;20072;-63
2022/01/24 12:57:01;;;;;;;36.42;23.60;;;10.80;78.90;;;;;;5032402;28;20022;-60
2022/01/24 12:59:27;;;;;;;26.10;20.90;;;10.80;77.00;;;;;;5031195;28;20079;-60
2022/01/24 13:01:56;;;;;;;30.00;22.65;;;10.80;77.10;;;;;;5032558;28;20021;-63
2022/01/24 13:04:34;;;;;;;29.33;20.60;;;10.80;77.40;;;;;;5031781;28;20497;-60
2022/01/24 13:07:00;;;;;;;31.35;22.35;;;10.80;78.20;;;;;;5028891;28;20041;-61
2022/01/24 13:09:26;;;;;;;31.35;24.23;;;10.80;77.10;;;;;;5031920;28;20471;-57
2022/01/24 13:12:00;;;;;;;27.92;22.30;;;10.90;75.90;;;;;;5039810;28;20021;-64
2022/01/24 13:14:39;;;;;;;28.25;20.88;;;10.80;77.60;;;;;;5052452;28;20036;-59
2022/01/24 13:25:14;;;;;;;31.40;23.83;;;10.80;76.30;;;;;;5032246;28;20037;-59
2022/01/24 13:27:45;;;;;;;30.65;24.73;;;10.80;76.60;;;;;;5032425;28;20048;-64
2022/01/24 13:30:19;;;;;;;35.17;26.30;;;10.80;76.30;;;;;;5032194;28;20033;-59
2022/01/24 13:32:47;;;;;;;35.20;25.95;;;11.00;75.70;;;;;;5032432;28;20033;-59
2022/01/24 13:35:31;;;;;;;33.17;26.38;;;11.00;75.40;;;;;;5036149;28;20024;-58
2022/01/24 13:38:01;;;;;;;35.92;27.08;;;11.00;75.10;;;;;;5039227;28;20109;-58
2022/01/24 13:40:34;;;;;;;34.13;27.35;;;11.00;75.00;;;;;;5036275;28;20036;-59
2022/01/24 13:43:00;;;;;;;33.85;27.23;;;11.10;74.90;;;;;;5036304;28;20026;-63
2022/01/24 13:45:26;;;;;;;33.60;26.05;;;11.00;75.70;;;;;;5035813;28;20030;-57
2022/01/24 13:47:59;;;;;;;33.22;27.02;;;11.00;75.40;;;;;;5034908;28;20044;-58
2022/01/24 13:50:26;;;;;;;35.60;27.17;;;11.00;75.40;;;;;;5035280;28;20068;-58
2022/01/24 13:52:52;;;;;;;35.67;26.25;;;11.00;75.60;;;;;;5035181;28;20022;-57
2022/01/24 13:55:22;;;;;;;30.80;24.35;;;10.90;75.20;;;;;;5030468;28;20041;-55
2022/01/24 13:57:50;;;;;;;35.13;27.95;;;11.00;76.00;;;;;;5035923;28;20074;-59
2022/01/24 14:00:28;;;;;;;35.58;27.08;;;11.00;75.10;;;;;;5035166;28;20029;-57
2022/01/24 14:03:08;;;;;;;36.13;27.83;;;11.00;75.10;;;;;;5044171;28;20021;-58
2022/01/24 14:05:34;;;;;;;34.92;27.02;;;11.00;75.10;;;;;;5035495;28;20025;-59
2022/01/24 14:08:15;;;;;;;34.28;27.63;;;10.90;75.50;;;;;;5035293;28;20437;-55
2022/01/24 14:10:42;;;;;;;36.25;27.73;;;11.00;75.70;;;;;;5035390;28;20095;-59
2022/01/24 14:13:08;;;;;;;39.08;28.02;;;11.00;75.20;;;;;;5039479;28;20487;-59
2022/01/24 14:15:48;;;;;;;36.53;27.20;;;11.00;75.20;;;;;;5040435;28;20021;-58
2022/01/24 14:20:47;;;;;;;38.97;29.40;;;11.00;74.40;;;;;;5027582;28;20064;-55
2022/01/24 14:23:36;;;;;;;31.58;25.50;;;11.00;75.10;;;;;;5034011;28;20029;-57
2022/01/24 14:26:22;;;;;;;37.25;28.27;;;10.90;76.00;;;;;;5028050;28;20053;-56
2022/01/24 14:29:02;;;;;;;33.60;26.48;;;11.00;74.90;;;;;;5039122;28;20037;-60
2022/01/24 14:31:27;;;;;;;34.72;27.17;;;11.00;74.40;;;;;;5038226;28;20043;-56
2022/01/24 14:34:04;;;;;;;37.00;29.13;;;11.00;74.70;;;;;;5053340;28;20025;-60
2022/01/24 14:36:29;;;;;;;32.47;27.60;;;11.00;74.60;;;;;;5033401;28;20030;-59
2022/01/24 14:38:59;;;;;;;33.22;26.88;;;11.00;74.50;;;;;;5033820;28;20212;-59
2022/01/24 14:41:47;;;;;;;36.55;28.30;;;11.00;74.90;;;;;;5033877;28;20482;-57
2022/01/24 14:47:01;;;;;;;36.25;27.80;;;11.00;75.00;;;;;;5034511;28;20120;-59